^^
Saratoga-Weather Station Historical Data
Daily Summary for June 16, 2021 Units:  Both    English   Metric
Daily Weekly Monthly Yearly Custom
  High: Low: Average:
Temperature: 63.7 °F /  17.6 °C 61.9 °F /  16.6 °C 63 °F /  17.2 °C
Dew Point: 61.7 °F /  16.5 °C 60.1 °F /  15.6 °C 61 °F /  16.1 °C
Humidity: 95% 93% 94%
Wind Speed: 6.9mph /  11.1km/h - 2.7mph /  4.3km/h
Wind Gust: 9mph /  14.5km/h - -
Wind- - West
Pressure: 30 in /  1017.3 hPa 30 in /  1015.9 hPa -
Precipitation: 0 in /  0.0 mm    
Historical Graphs
 
 
Tabular Data for June 16, 2021
Time Temperature Dew Point Pressure Wind Wind Speed Wind Gust Humidity Rainfall Rate (Hourly) solar
00:01 63 °F /  17.2 °C 61 °F /  16.1 °C 30in /  1016.3hPa West 4mph /  6.4km/h 7mph /  11.3km/h 93% 0in /  0.0mm 0 W/m2
00:06 63 °F /  17.2 °C 61 °F /  16.1 °C 30in /  1015.9hPa WSW 2.9mph /  4.7km/h 7mph /  11.3km/h 93% 0in /  0.0mm 0 W/m2
00:11 63 °F /  17.2 °C 61 °F /  16.1 °C 30in /  1016.3hPa WSW 2mph /  3.2km/h 5mph /  8km/h 93% 0in /  0.0mm 0 W/m2
00:16 63 °F /  17.2 °C 61 °F /  16.1 °C 30in /  1016.3hPa WSW 2mph /  3.2km/h 7mph /  11.3km/h 93% 0in /  0.0mm 0 W/m2
00:21 63 °F /  17.2 °C 61 °F /  16.1 °C 30in /  1016.3hPa WNW 2mph /  3.2km/h 3mph /  4.8km/h 93% 0in /  0.0mm 0 W/m2
00:26 62.8 °F /  17.1 °C 60.8 °F /  16 °C 30in /  1016.3hPa West 0.9mph /  1.4km/h 4mph /  6.4km/h 93% 0in /  0.0mm 0 W/m2
00:31 62.8 °F /  17.1 °C 60.8 °F /  16 °C 30in /  1016.3hPa West 0.9mph /  1.4km/h 3mph /  4.8km/h 93% 0in /  0.0mm 0 W/m2
00:36 62.6 °F /  17 °C 60.8 °F /  16 °C 30in /  1016.3hPa Calm   2mph /  3.2km/h 94% 0in /  0.0mm 0 W/m2
00:41 62.4 °F /  16.9 °C 60.4 °F /  15.8 °C 30in /  1016.3hPa West 2mph /  3.2km/h 2mph /  3.2km/h 93% 0in /  0.0mm 0 W/m2
00:46 62.4 °F /  16.9 °C 60.6 °F /  15.9 °C 30in /  1016.3hPa Calm     94% 0in /  0.0mm 0 W/m2
00:51 62.2 °F /  16.8 °C 60.4 °F /  15.8 °C 30in /  1016.3hPa Calm     94% 0in /  0.0mm 0 W/m2
00:56 62.1 °F /  16.7 °C 60.3 °F /  15.7 °C 30in /  1016.6hPa Calm     94% 0in /  0.0mm 0 W/m2
01:01 61.9 °F /  16.6 °C 60.1 °F /  15.6 °C 30in /  1016.6hPa Calm     94% 0in /  0.0mm 0 W/m2
01:06 61.9 °F /  16.6 °C 60.1 °F /  15.6 °C 30in /  1016.9hPa Calm     94% 0in /  0.0mm 0 W/m2
01:11 61.9 °F /  16.6 °C 60.4 °F /  15.8 °C 30in /  1016.9hPa Calm     95% 0in /  0.0mm 0 W/m2
01:16 61.9 °F /  16.6 °C 60.4 °F /  15.8 °C 30in /  1016.6hPa WSW 0.9mph /  1.4km/h 2mph /  3.2km/h 95% 0in /  0.0mm 0 W/m2
01:21 61.9 °F /  16.6 °C 60.4 °F /  15.8 °C 30in /  1016.6hPa Calm     95% 0in /  0.0mm 0 W/m2
01:26 62.1 °F /  16.7 °C 60.6 °F /  15.9 °C 30in /  1016.9hPa Calm   2mph /  3.2km/h 95% 0in /  0.0mm 0 W/m2
01:31 62.1 °F /  16.7 °C 60.6 °F /  15.9 °C 30in /  1016.9hPa Calm     95% 0in /  0.0mm 0 W/m2
01:36 62.1 °F /  16.7 °C 60.6 °F /  15.9 °C 30in /  1016.9hPa Calm   1mph /  1.6km/h 95% 0in /  0.0mm 0 W/m2
01:41 62.1 °F /  16.7 °C 60.6 °F /  15.9 °C 30in /  1016.6hPa Calm   2mph /  3.2km/h 95% 0in /  0.0mm 0 W/m2
01:46 62.1 °F /  16.7 °C 60.6 °F /  15.9 °C 30in /  1016.6hPa Calm   2mph /  3.2km/h 95% 0in /  0.0mm 0 W/m2
01:51 62.2 °F /  16.8 °C 60.8 °F /  16 °C 30in /  1016.6hPa WSW 0.9mph /  1.4km/h 3mph /  4.8km/h 95% 0in /  0.0mm 0 W/m2
01:56 62.2 °F /  16.8 °C 60.8 °F /  16 °C 30in /  1016.6hPa West 2.9mph /  4.7km/h 6mph /  9.7km/h 95% 0in /  0.0mm 0 W/m2
02:01 62.4 °F /  16.9 °C 61 °F /  16.1 °C 30in /  1016.6hPa West 2.9mph /  4.7km/h 4mph /  6.4km/h 95% 0in /  0.0mm 0 W/m2
02:06 62.6 °F /  17 °C 61.2 °F /  16.2 °C 30in /  1016.9hPa West 2.9mph /  4.7km/h 3mph /  4.8km/h 95% 0in /  0.0mm 0 W/m2
02:11 62.8 °F /  17.1 °C 61.3 °F /  16.3 °C 30in /  1016.9hPa West 2.9mph /  4.7km/h 6mph /  9.7km/h 95% 0in /  0.0mm 0 W/m2
02:16 63 °F /  17.2 °C 61.5 °F /  16.4 °C 30in /  1016.9hPa West 4mph /  6.4km/h 6mph /  9.7km/h 95% 0in /  0.0mm 0 W/m2
02:21 63 °F /  17.2 °C 61.2 °F /  16.2 °C 30in /  1016.9hPa West 2.9mph /  4.7km/h 4mph /  6.4km/h 94% 0in /  0.0mm 0 W/m2
02:26 63.1 °F /  17.3 °C 61.3 °F /  16.3 °C 30in /  1016.6hPa WSW 4mph /  6.4km/h 7mph /  11.3km/h 94% 0in /  0.0mm 0 W/m2
02:31 63.3 °F /  17.4 °C 61.5 °F /  16.4 °C 30in /  1016.6hPa West 2.9mph /  4.7km/h 6mph /  9.7km/h 94% 0in /  0.0mm 0 W/m2
02:36 63.3 °F /  17.4 °C 61.5 °F /  16.4 °C 30in /  1016.6hPa WNW 2.9mph /  4.7km/h 7mph /  11.3km/h 94% 0in /  0.0mm 0 W/m2
02:41 63.3 °F /  17.4 °C 61.5 °F /  16.4 °C 30in /  1016.6hPa West 4mph /  6.4km/h 7mph /  11.3km/h 94% 0in /  0.0mm 0 W/m2
02:46 63.3 °F /  17.4 °C 61.5 °F /  16.4 °C 30in /  1016.6hPa West 2mph /  3.2km/h 4mph /  6.4km/h 94% 0in /  0.0mm 0 W/m2
02:51 63.5 °F /  17.5 °C 61.5 °F /  16.4 °C 30in /  1016.6hPa WNW 2mph /  3.2km/h 4mph /  6.4km/h 93% 0in /  0.0mm 0 W/m2
02:56 63.5 °F /  17.5 °C 61.5 °F /  16.4 °C 30in /  1016.6hPa West 2.9mph /  4.7km/h 6mph /  9.7km/h 93% 0in /  0.0mm 0 W/m2
03:01 63.7 °F /  17.6 °C 61.7 °F /  16.5 °C 30in /  1016.6hPa WNW 4.9mph /  7.9km/h 6mph /  9.7km/h 93% 0in /  0.0mm 0 W/m2
03:06 63.7 °F /  17.6 °C 61.7 °F /  16.5 °C 30in /  1016.6hPa WSW 6.9mph /  11.1km/h 7mph /  11.3km/h 93% 0in /  0.0mm 0 W/m2
03:11 63.7 °F /  17.6 °C 61.7 °F /  16.5 °C 30in /  1016.6hPa WNW 4.9mph /  7.9km/h 8mph /  12.9km/h 93% 0in /  0.0mm 0 W/m2
03:17 63.7 °F /  17.6 °C 61.7 °F /  16.5 °C 30in /  1016.6hPa West 2.9mph /  4.7km/h 6mph /  9.7km/h 93% 0in /  0.0mm 0 W/m2
03:22 63.7 °F /  17.6 °C 61.7 °F /  16.5 °C 30in /  1016.6hPa West 4mph /  6.4km/h 8mph /  12.9km/h 93% 0in /  0.0mm 0 W/m2
03:27 63.7 °F /  17.6 °C 61.7 °F /  16.5 °C 30in /  1016.6hPa West 2.9mph /  4.7km/h 4mph /  6.4km/h 93% 0in /  0.0mm 0 W/m2
03:32 63.5 °F /  17.5 °C 61.5 °F /  16.4 °C 30in /  1016.6hPa West 6mph /  9.7km/h 8mph /  12.9km/h 93% 0in /  0.0mm 0 W/m2
03:37 63.3 °F /  17.4 °C 61.3 °F /  16.3 °C 30in /  1016.6hPa West 2.9mph /  4.7km/h 8mph /  12.9km/h 93% 0in /  0.0mm 0 W/m2
03:42 63.3 °F /  17.4 °C 61.3 °F /  16.3 °C 30in /  1016.6hPa West 4mph /  6.4km/h 7mph /  11.3km/h 93% 0in /  0.0mm 0 W/m2
03:47 63.3 °F /  17.4 °C 61.3 °F /  16.3 °C 30in /  1016.6hPa West 4mph /  6.4km/h 4mph /  6.4km/h 93% 0in /  0.0mm 0 W/m2
03:52 63.3 °F /  17.4 °C 61.3 °F /  16.3 °C 30in /  1016.6hPa West 2.9mph /  4.7km/h 4mph /  6.4km/h 93% 0in /  0.0mm 0 W/m2
03:57 63.1 °F /  17.3 °C 61.2 °F /  16.2 °C 30in /  1016.6hPa West 2mph /  3.2km/h 4mph /  6.4km/h 93% 0in /  0.0mm 0 W/m2
04:02 63.1 °F /  17.3 °C 61.2 °F /  16.2 °C 30in /  1016.6hPa WNW 6mph /  9.7km/h 6mph /  9.7km/h 93% 0in /  0.0mm 0 W/m2
04:07 63.1 °F /  17.3 °C 61.2 °F /  16.2 °C 30in /  1016.6hPa West 4mph /  6.4km/h 5mph /  8km/h 93% 0in /  0.0mm 0 W/m2
04:12 63 °F /  17.2 °C 61 °F /  16.1 °C 30in /  1016.9hPa WNW 4mph /  6.4km/h 7mph /  11.3km/h 93% 0in /  0.0mm 0 W/m2
04:17 63 °F /  17.2 °C 61 °F /  16.1 °C 30in /  1016.9hPa WSW 4mph /  6.4km/h 6mph /  9.7km/h 93% 0in /  0.0mm 0 W/m2
04:22 63 °F /  17.2 °C 61 °F /  16.1 °C 30in /  1016.6hPa West 4mph /  6.4km/h 4mph /  6.4km/h 93% 0in /  0.0mm 0 W/m2
04:27 63 °F /  17.2 °C 61 °F /  16.1 °C 30in /  1016.9hPa West 2.9mph /  4.7km/h 6mph /  9.7km/h 93% 0in /  0.0mm 0 W/m2
04:32 63 °F /  17.2 °C 61.2 °F /  16.2 °C 30in /  1016.9hPa West 2.9mph /  4.7km/h 6mph /  9.7km/h 94% 0in /  0.0mm 0 W/m2
04:37 63 °F /  17.2 °C 61 °F /  16.1 °C 30in /  1016.9hPa West 2.9mph /  4.7km/h 7mph /  11.3km/h 93% 0in /  0.0mm 0 W/m2
04:42 63 °F /  17.2 °C 61 °F /  16.1 °C 30in /  1016.9hPa SW 4mph /  6.4km/h 6mph /  9.7km/h 93% 0in /  0.0mm 0 W/m2
04:47 63 °F /  17.2 °C 61 °F /  16.1 °C 30in /  1016.9hPa WNW 2.9mph /  4.7km/h 6mph /  9.7km/h 93% 0in /  0.0mm 0 W/m2
04:52 63 °F /  17.2 °C 61 °F /  16.1 °C 30in /  1016.9hPa West 4mph /  6.4km/h 6mph /  9.7km/h 93% 0in /  0.0mm 0 W/m2
04:57 63 °F /  17.2 °C 61 °F /  16.1 °C 30in /  1016.9hPa WSW 4mph /  6.4km/h 6mph /  9.7km/h 93% 0in /  0.0mm 0 W/m2
05:02 63 °F /  17.2 °C 61 °F /  16.1 °C 30in /  1016.9hPa WSW 4mph /  6.4km/h 4mph /  6.4km/h 93% 0in /  0.0mm 0 W/m2
05:07 63 °F /  17.2 °C 61 °F /  16.1 °C 30in /  1016.9hPa WSW 4mph /  6.4km/h 5mph /  8km/h 93% 0in /  0.0mm 0 W/m2
05:12 63 °F /  17.2 °C 61 °F /  16.1 °C 30in /  1016.9hPa West 2.9mph /  4.7km/h 7mph /  11.3km/h 93% 0in /  0.0mm 0 W/m2
05:17 63 °F /  17.2 °C 61 °F /  16.1 °C 30in /  1016.9hPa WNW 2mph /  3.2km/h 4mph /  6.4km/h 93% 0in /  0.0mm 0 W/m2
05:22 63 °F /  17.2 °C 61 °F /  16.1 °C 30in /  1016.9hPa West 4mph /  6.4km/h 6mph /  9.7km/h 93% 0in /  0.0mm 0 W/m2
05:27 63.1 °F /  17.3 °C 61.2 °F /  16.2 °C 30in /  1016.9hPa West 4mph /  6.4km/h 7mph /  11.3km/h 93% 0in /  0.0mm 0 W/m2
05:32 63.1 °F /  17.3 °C 61.2 °F /  16.2 °C 30in /  1017.3hPa West 2.9mph /  4.7km/h 7mph /  11.3km/h 93% 0in /  0.0mm 0 W/m2
05:37 63.1 °F /  17.3 °C 61.2 °F /  16.2 °C 30in /  1017.3hPa West 2.9mph /  4.7km/h 7mph /  11.3km/h 93% 0in /  0.0mm 0 W/m2
05:42 63.1 °F /  17.3 °C 61.2 °F /  16.2 °C 30in /  1017.3hPa West 4mph /  6.4km/h 7mph /  11.3km/h 93% 0in /  0.0mm 0 W/m2
05:47 63.3 °F /  17.4 °C 61.3 °F /  16.3 °C 30in /  1017.3hPa West 2.9mph /  4.7km/h 5mph /  8km/h 93% 0in /  0.0mm 0 W/m2
05:52 63.3 °F /  17.4 °C 61.3 °F /  16.3 °C 30in /  1017.3hPa West 4mph /  6.4km/h 9mph /  14.5km/h 93% 0in /  0.0mm 0 W/m2
Juneau County Weather
Compliments of Weather Underground - 4 mb